Time;durP1;ratioP1;P1;durP2;ratioP2;P2;SDS_P1;SDS_P2;PMS_P1;PMS_P2;Temp;Humidity;BMP_temperature;BMP_pressure;BME280_temperature;BME280_humidity;BME280_pressure;Samples;Min_cycle;Max_cycle;Signal;HPM_P1;HPM_P2
2024/04/11 00:01:55;;;;;;;;;;;24.70;40.50;;;;;;5453187;26;19936;-61
2024/04/11 00:04:23;;;;;;;;;;;24.70;40.60;;;;;;5452897;26;19934;-61
2024/04/11 00:06:51;;;;;;;;;;;24.60;40.50;;;;;;5453037;26;19929;-61
2024/04/11 00:09:18;;;;;;;;;;;24.70;40.60;;;;;;5453078;26;19928;-61
2024/04/11 00:11:45;;;;;;;;;;;24.60;40.50;;;;;;5452513;26;19936;-61
2024/04/11 00:14:12;;;;;;;;;;;24.60;40.60;;;;;;5452821;26;19960;-61
2024/04/11 00:16:39;;;;;;;;;;;24.70;40.60;;;;;;5452698;26;20373;-61
2024/04/11 00:19:06;;;;;;;;;;;24.70;40.60;;;;;;5454173;26;19940;-61
2024/04/11 00:21:33;;;;;;;;;;;24.70;40.60;;;;;;5456489;26;20269;-61
2024/04/11 00:24:00;;;;;;;;;;;24.70;40.60;;;;;;5456355;26;19936;-61
2024/04/11 00:26:27;;;;;;;;;;;24.60;40.60;;;;;;5456383;26;19933;-61
2024/04/11 00:28:54;;;;;;;;;;;24.60;40.50;;;;;;5456298;26;19929;-61
2024/04/11 00:31:21;;;;;;;;;;;24.60;40.50;;;;;;5456114;26;19996;-61
2024/04/11 00:34:13;;;;;;;;;;;24.60;40.60;;;;;;5456223;26;20373;-61
2024/04/11 00:36:36;;;;;;;;;;;24.70;40.60;;;;;;5456139;26;19932;-61
2024/04/11 00:39:03;;;;;;;;;;;24.60;40.50;;;;;;5456052;26;19933;-61
2024/04/11 00:41:31;;;;;;;;;;;24.60;40.50;;;;;;5456119;26;20026;-61
2024/04/11 00:43:59;;;;;;;;;;;24.60;40.60;;;;;;5456346;26;19973;-61
2024/04/11 00:46:27;;;;;;;;;;;24.60;40.60;;;;;;5455907;26;19939;-61
2024/04/11 00:48:54;;;;;;;;;;;24.60;40.60;;;;;;5456048;26;19937;-61
2024/04/11 00:51:21;;;;;;;;;;;24.60;40.60;;;;;;5454403;26;19929;-61
2024/04/11 00:53:51;;;;;;;;;;;24.60;40.60;;;;;;5455837;26;19928;-62
2024/04/11 00:56:18;;;;;;;;;;;24.60;40.60;;;;;;5455956;26;19939;-61
2024/04/11 00:58:45;;;;;;;;;;;24.60;40.60;;;;;;5455851;26;20293;-61
2024/04/11 01:01:12;;;;;;;;;;;24.60;40.70;;;;;;5455762;26;19928;-61
2024/04/11 01:03:40;;;;;;;;;;;24.60;40.70;;;;;;5455853;26;19932;-61
2024/04/11 01:06:07;;;;;;;;;;;24.60;40.70;;;;;;5455769;26;20370;-61
2024/04/11 01:08:34;;;;;;;;;;;24.60;40.70;;;;;;5455596;26;19996;-61
2024/04/11 01:11:01;;;;;;;;;;;24.60;40.70;;;;;;5455758;26;19928;-61
2024/04/11 01:13:29;;;;;;;;;;;24.60;40.80;;;;;;5455490;26;19960;-61
2024/04/11 01:15:59;;;;;;;;;;;24.60;40.80;;;;;;5455567;26;19932;-61
2024/04/11 01:18:26;;;;;;;;;;;24.50;40.70;;;;;;5455743;26;19936;-61
2024/04/11 01:20:53;;;;;;;;;;;24.50;40.70;;;;;;5455454;26;19935;-63
2024/04/11 01:23:23;;;;;;;;;;;24.60;40.80;;;;;;5455661;26;19935;-61
2024/04/11 01:25:50;;;;;;;;;;;24.60;40.80;;;;;;5455426;26;19928;-61
2024/04/11 01:28:17;;;;;;;;;;;24.60;40.80;;;;;;5454917;26;19936;-61
2024/04/11 01:30:44;;;;;;;;;;;24.60;40.80;;;;;;5455307;26;19932;-61
2024/04/11 01:33:14;;;;;;;;;;;24.50;40.70;;;;;;5455289;26;19936;-61
2024/04/11 01:35:42;;;;;;;;;;;24.60;40.80;;;;;;5453626;26;19928;-61
2024/04/11 01:38:09;;;;;;;;;;;24.50;40.70;;;;;;5455209;26;19935;-61
2024/04/11 01:40:36;;;;;;;;;;;24.60;40.80;;;;;;5455186;26;19936;-61
2024/04/11 01:43:04;;;;;;;;;;;24.50;40.70;;;;;;5455210;26;19928;-60
2024/04/11 01:45:31;;;;;;;;;;;24.50;40.70;;;;;;5455376;26;19977;-61
2024/04/11 01:47:59;;;;;;;;;;;24.60;40.80;;;;;;5455266;26;19929;-61
2024/04/11 01:50:26;;;;;;;;;;;24.50;40.80;;;;;;5454918;26;19955;-61
2024/04/11 01:52:54;;;;;;;;;;;24.50;40.80;;;;;;5455152;26;20001;-61
2024/04/11 01:55:21;;;;;;;;;;;24.50;40.80;;;;;;5455273;26;20373;-61
2024/04/11 01:57:49;;;;;;;;;;;24.50;40.80;;;;;;5455014;26;20393;-61
2024/04/11 02:00:16;;;;;;;;;;;24.50;40.80;;;;;;5454876;26;19929;-61
2024/04/11 02:02:43;;;;;;;;;;;24.50;40.80;;;;;;5455012;26;19952;-61
2024/04/11 02:05:11;;;;;;;;;;;24.50;40.80;;;;;;5455120;26;19941;-61
2024/04/11 02:07:38;;;;;;;;;;;24.50;40.90;;;;;;5455030;26;19962;-61
2024/04/11 02:10:06;;;;;;;;;;;24.50;40.90;;;;;;5454905;26;19928;-61
2024/04/11 02:12:33;;;;;;;;;;;24.50;40.90;;;;;;5454728;26;20374;-61
2024/04/11 02:15:00;;;;;;;;;;;24.50;40.90;;;;;;5455049;26;19940;-61
2024/04/11 02:17:28;;;;;;;;;;;24.50;40.90;;;;;;5453183;26;19943;-61
2024/04/11 02:19:56;;;;;;;;;;;24.50;40.90;;;;;;5454703;26;19964;-61
2024/04/11 02:22:23;;;;;;;;;;;24.50;40.90;;;;;;5454777;26;19928;-61
2024/04/11 02:24:51;;;;;;;;;;;24.50;40.90;;;;;;5454649;26;19952;-61
2024/04/11 02:27:18;;;;;;;;;;;24.50;40.90;;;;;;5454642;26;19929;-61
2024/04/11 02:29:47;;;;;;;;;;;24.50;40.90;;;;;;5454291;26;20291;-61
2024/04/11 02:32:14;;;;;;;;;;;24.50;40.90;;;;;;5454279;26;20402;-61
2024/04/11 02:34:41;;;;;;;;;;;24.50;40.90;;;;;;5454494;26;19928;-61
2024/04/11 02:37:08;;;;;;;;;;;24.50;40.90;;;;;;5454398;26;19928;-62
2024/04/11 02:39:35;;;;;;;;;;;24.50;40.90;;;;;;5453664;26;19943;-61
2024/04/11 02:42:02;;;;;;;;;;;24.50;40.90;;;;;;5453721;26;19940;-61
2024/04/11 02:44:29;;;;;;;;;;;24.50;40.90;;;;;;5454524;26;19935;-61
2024/04/11 02:47:01;;;;;;;;;;;24.50;41.00;;;;;;5454378;26;20295;-61
2024/04/11 02:49:28;;;;;;;;;;;24.50;41.00;;;;;;5454246;26;19997;-61
2024/04/11 02:51:55;;;;;;;;;;;24.50;41.00;;;;;;5454293;26;19939;-61
2024/04/11 02:54:23;;;;;;;;;;;24.50;41.50;;;;;;5454104;26;19933;-61
2024/04/11 02:56:50;;;;;;;;;;;24.40;41.00;;;;;;5451161;26;20370;-61
2024/04/11 02:59:17;;;;;;;;;;;24.40;41.00;;;;;;5452115;26;19935;-61
2024/04/11 03:01:44;;;;;;;;;;;24.50;41.10;;;;;;5451562;26;19928;-61
2024/04/11 03:04:14;;;;;;;;;;;24.40;41.00;;;;;;5452388;26;19928;-61
2024/04/11 03:06:41;;;;;;;;;;;24.40;41.00;;;;;;5454004;26;19944;-61
2024/04/11 03:09:09;;;;;;;;;;;24.40;41.00;;;;;;5452268;26;19928;-61
2024/04/11 03:11:42;;;;;;;;;;;24.40;41.00;;;;;;5453936;26;19936;-61
2024/04/11 03:14:09;;;;;;;;;;;24.40;41.00;;;;;;5454032;26;19936;-61
2024/04/11 03:16:37;;;;;;;;;;;24.40;41.00;;;;;;5453520;26;20378;-61
2024/04/11 03:19:06;;;;;;;;;;;24.40;41.10;;;;;;5453745;26;20285;-61
2024/04/11 03:21:33;;;;;;;;;;;24.40;41.10;;;;;;5453946;26;19956;-61
2024/04/11 03:24:00;;;;;;;;;;;24.40;41.10;;;;;;5434687;26;19937;-61
2024/04/11 03:26:27;;;;;;;;;;;24.40;41.10;;;;;;5417828;26;19929;-61
2024/04/11 03:28:56;;;;;;;;;;;24.40;41.10;;;;;;5417817;26;19929;-61
2024/04/11 03:31:22;;;;;;;;;;;24.40;41.10;;;;;;5417600;26;20440;-62
2024/04/11 03:33:50;;;;;;;;;;;24.40;41.10;;;;;;5417658;26;19961;-61
2024/04/11 03:36:19;;;;;;;;;;;24.40;41.10;;;;;;5415455;26;19941;-61
2024/04/11 03:38:54;;;;;;;;;;;24.40;41.10;;;;;;5417297;26;19929;-61
2024/04/11 03:41:21;;;;;;;;;;;24.40;41.00;;;;;;5417356;26;19978;-61
2024/04/11 03:43:54;;;;;;;;;;;24.50;41.60;;;;;;5417362;26;19929;-61
2024/04/11 03:46:23;;;;;;;;;;;24.50;41.10;;;;;;5417271;26;19937;-61
2024/04/11 03:48:55;;;;;;;;;;;24.40;41.10;;;;;;5417347;26;19937;-61
2024/04/11 03:51:24;;;;;;;;;;;24.40;41.10;;;;;;5417812;26;19929;-60
2024/04/11 03:53:55;;;;;;;;;;;24.40;41.10;;;;;;5420541;26;19940;-61
2024/04/11 03:56:24;;;;;;;;;;;24.40;41.10;;;;;;5420725;26;20398;-61
2024/04/11 03:58:51;;;;;;;;;;;24.40;41.10;;;;;;5455141;26;19935;-61
2024/04/11 04:01:18;;;;;;;;;;;24.40;41.10;;;;;;5455535;26;19936;-61
2024/04/11 04:03:46;;;;;;;;;;;24.40;41.20;;;;;;5456794;26;19928;-61
2024/04/11 04:06:14;;;;;;;;;;;24.30;41.10;;;;;;5456218;26;19928;-61
2024/04/11 04:08:44;;;;;;;;;;;24.40;41.20;;;;;;5445532;26;19936;-61
2024/04/11 04:11:18;;;;;;;;;;;24.30;41.10;;;;;;5437976;26;19932;-61
2024/04/11 04:13:45;;;;;;;;;;;24.40;41.20;;;;;;5436050;26;19997;-60
2024/04/11 04:16:16;;;;;;;;;;;24.30;41.10;;;;;;5437554;26;19928;-61
2024/04/11 04:18:47;;;;;;;;;;;24.30;41.20;;;;;;5439634;26;19940;-61
2024/04/11 04:21:14;;;;;;;;;;;24.40;41.20;;;;;;5438244;26;19929;-61
2024/04/11 04:23:48;;;;;;;;;;;24.30;41.20;;;;;;5435854;26;19929;-61
2024/04/11 04:26:19;;;;;;;;;;;24.30;41.20;;;;;;5436528;26;19952;-61
2024/04/11 04:28:47;;;;;;;;;;;24.30;41.20;;;;;;5438944;26;19928;-61
2024/04/11 04:31:16;;;;;;;;;;;24.30;41.20;;;;;;5436432;26;19933;-61
2024/04/11 04:33:47;;;;;;;;;;;24.30;41.20;;;;;;5435319;26;19928;-61
2024/04/11 04:36:28;;;;;;;;;;;24.40;41.10;;;;;;5437768;26;19929;-61
2024/04/11 04:38:56;;;;;;;;;;;24.40;41.10;;;;;;5438167;26;19942;-61
2024/04/11 04:41:28;;;;;;;;;;;24.40;40.60;;;;;;5438597;26;20018;-61
2024/04/11 04:43:56;;;;;;;;;;;24.50;40.40;;;;;;5432902;26;19928;-61
2024/04/11 04:46:24;;;;;;;;;;;24.50;40.10;;;;;;5455366;26;20421;-61
2024/04/11 04:48:52;;;;;;;;;;;24.50;39.90;;;;;;5455810;26;19929;-61
2024/04/11 04:51:19;;;;;;;;;;;24.60;39.80;;;;;;5456068;26;19929;-61
2024/04/11 04:53:49;;;;;;;;;;;24.60;39.60;;;;;;5455523;26;20247;-61
2024/04/11 04:56:18;;;;;;;;;;;24.70;39.50;;;;;;5455227;26;19929;-61
2024/04/11 04:58:45;;;;;;;;;;;24.70;39.50;;;;;;5455384;26;19928;-61
2024/04/11 05:01:12;;;;;;;;;;;24.70;39.50;;;;;;5455783;26;20384;-61
2024/04/11 05:03:40;;;;;;;;;;;24.70;39.40;;;;;;5453413;26;19940;-61
2024/04/11 05:06:12;;;;;;;;;;;24.70;39.30;;;;;;5455031;26;20374;-61
2024/04/11 05:08:46;;;;;;;;;;;24.70;39.30;;;;;;5454984;26;20352;-61
2024/04/11 05:11:14;;;;;;;;;;;24.70;39.20;;;;;;5451038;26;19997;-61
2024/04/11 05:13:42;;;;;;;;;;;24.70;39.10;;;;;;5455145;26;19937;-61
2024/04/11 05:16:18;;;;;;;;;;;24.70;39.00;;;;;;5454661;26;19932;-61
2024/04/11 05:18:47;;;;;;;;;;;24.70;39.00;;;;;;5452579;26;19936;-61
2024/04/11 05:21:24;;;;;;;;;;;24.70;38.90;;;;;;5453490;26;19929;-61
2024/04/11 05:23:55;;;;;;;;;;;24.70;38.80;;;;;;5452206;26;20043;-61
2024/04/11 05:26:25;;;;;;;;;;;24.70;38.80;;;;;;5448738;26;19932;-62
2024/04/11 05:28:54;;;;;;;;;;;24.70;38.70;;;;;;5446002;26;19932;-59
2024/04/11 05:31:28;;;;;;;;;;;24.70;38.60;;;;;;5435398;26;19936;-59
2024/04/11 05:34:06;;;;;;;;;;;24.80;38.70;;;;;;5426872;26;20816;-58
2024/04/11 05:36:39;;;;;;;;;;;24.80;38.20;;;;;;5430092;26;19929;-60
2024/04/11 05:39:14;;;;;;;;;;;24.70;37.70;;;;;;5442308;26;19932;-59
2024/04/11 05:41:45;;;;;;;;;;;24.70;37.20;;;;;;5435900;26;19944;-60
2024/04/11 05:44:12;;;;;;;;;;;24.50;38.20;;;;;;5435219;26;19936;-60
2024/04/11 05:46:40;;;;;;;;;;;24.30;37.00;;;;;;5442254;26;20351;-59
2024/04/11 05:49:09;;;;;;;;;;;24.10;37.00;;;;;;5433009;26;19932;-60
2024/04/11 05:51:37;;;;;;;;;;;24.00;37.80;;;;;;5437791;26;19936;-60
2024/04/11 05:54:04;;;;;;;;;;;23.90;38.30;;;;;;5442822;26;19935;-59
2024/04/11 05:56:34;;;;;;;;;;;23.80;38.60;;;;;;5434234;26;19937;-60
2024/04/11 05:59:02;;;;;;;;;;;23.80;38.60;;;;;;5429539;26;19933;-61
2024/04/11 06:01:34;;;;;;;;;;;23.80;39.00;;;;;;5431849;26;20362;-60
2024/04/11 06:04:05;;;;;;;;;;;23.90;39.10;;;;;;5428598;26;19960;-60
2024/04/11 06:06:33;;;;;;;;;;;23.90;38.50;;;;;;5440736;26;19937;-60
2024/04/11 06:09:00;;;;;;;;;;;23.90;38.80;;;;;;5431272;26;19936;-59
2024/04/11 06:11:28;;;;;;;;;;;23.90;39.20;;;;;;5426677;26;20269;-59
2024/04/11 06:13:56;;;;;;;;;;;24.00;38.60;;;;;;5437897;26;20381;-61
2024/04/11 06:16:24;;;;;;;;;;;24.10;38.10;;;;;;5433182;26;19943;-60
2024/04/11 06:18:54;;;;;;;;;;;24.00;37.80;;;;;;5432424;26;19957;-61
2024/04/11 06:21:32;;;;;;;;;;;23.90;37.90;;;;;;5431408;26;19936;-59
2024/04/11 06:24:00;;;;;;;;;;;23.80;38.20;;;;;;5437096;26;19935;-59
2024/04/11 06:26:33;;;;;;;;;;;23.70;38.20;;;;;;5432428;26;19948;-59
2024/04/11 06:29:01;;;;;;;;;;;23.50;38.60;;;;;;5438874;26;19936;-58
2024/04/11 06:31:30;;;;;;;;;;;23.40;39.10;;;;;;5432571;26;20370;-59
2024/04/11 06:33:58;;;;;;;;;;;23.50;38.70;;;;;;5443455;26;19978;-60
2024/04/11 06:36:25;;;;;;;;;;;23.50;37.90;;;;;;5438210;26;19928;-59
2024/04/11 06:38:52;;;;;;;;;;;23.40;38.30;;;;;;5442730;26;19941;-59
2024/04/11 06:41:22;;;;;;;;;;;23.40;38.70;;;;;;5435612;26;19936;-59
2024/04/11 06:43:52;;;;;;;;;;;23.40;39.00;;;;;;5438233;26;19935;-58
2024/04/11 06:46:33;;;;;;;;;;;23.40;38.90;;;;;;5441027;26;20421;-60
2024/04/11 06:49:02;;;;;;;;;;;23.40;38.90;;;;;;5440425;26;19935;-62
2024/04/11 06:51:31;;;;;;;;;;;23.50;39.30;;;;;;5439959;26;19936;-62
2024/04/11 06:54:03;;;;;;;;;;;23.60;39.60;;;;;;5444276;26;19997;-61
2024/04/11 06:56:31;;;;;;;;;;;23.70;39.60;;;;;;5439845;26;19940;-62
2024/04/11 06:59:01;;;;;;;;;;;23.70;38.90;;;;;;5434269;26;20311;-62
2024/04/11 07:01:28;;;;;;;;;;;23.80;39.20;;;;;;5435974;26;19935;-61
2024/04/11 07:03:57;;;;;;;;;;;23.90;38.90;;;;;;5434623;26;19953;-63
2024/04/11 07:06:24;;;;;;;;;;;23.90;38.60;;;;;;5442212;26;19941;-61
2024/04/11 07:08:55;;;;;;;;;;;23.90;38.50;;;;;;5432607;26;19988;-63
2024/04/11 07:11:32;;;;;;;;;;;23.90;38.90;;;;;;5440475;26;19936;-62
2024/04/11 07:14:10;;;;;;;;;;;24.00;39.10;;;;;;5439331;26;19936;-64
2024/04/11 07:16:52;;;;;;;;;;;24.10;39.30;;;;;;5434901;26;19997;-61
2024/04/11 07:19:19;;;;;;;;;;;24.30;39.30;;;;;;5437046;26;19929;-61
2024/04/11 07:21:48;;;;;;;;;;;24.50;39.20;;;;;;5438794;26;20354;-64
2024/04/11 07:24:15;;;;;;;;;;;24.60;38.90;;;;;;5435666;26;19948;-63
2024/04/11 07:26:43;;;;;;;;;;;24.70;38.50;;;;;;5438862;26;20467;-62
2024/04/11 07:29:10;;;;;;;;;;;24.80;38.40;;;;;;5437596;26;19929;-62
2024/04/11 07:31:39;;;;;;;;;;;24.90;38.20;;;;;;5434263;26;19944;-63
2024/04/11 07:34:07;;;;;;;;;;;25.00;37.90;;;;;;5435720;26;19976;-64
2024/04/11 07:36:39;;;;;;;;;;;25.10;37.80;;;;;;5433998;26;20277;-63
2024/04/11 07:39:08;;;;;;;;;;;25.10;38.00;;;;;;5435811;26;20009;-62
2024/04/11 07:41:46;;;;;;;;;;;25.20;38.20;;;;;;5434892;26;19936;-64
2024/04/11 07:44:17;;;;;;;;;;;25.30;38.30;;;;;;5431592;26;20021;-65
2024/04/11 07:46:46;;;;;;;;;;;25.40;38.10;;;;;;5435721;26;20378;-63
2024/04/11 07:49:35;;;;;;;;;;;25.50;37.80;;;;;;5441114;26;19978;-63
2024/04/11 07:52:03;;;;;;;;;;;25.60;37.80;;;;;;5440264;26;19941;-62
2024/04/11 07:54:31;;;;;;;;;;;25.70;37.50;;;;;;5433721;26;19937;-64
2024/04/11 07:57:12;;;;;;;;;;;25.70;37.40;;;;;;5441997;26;19929;-63
2024/04/11 07:59:41;;;;;;;;;;;25.80;37.10;;;;;;5437297;26;20354;-62
2024/04/11 08:02:10;;;;;;;;;;;25.80;37.10;;;;;;5429574;26;20296;-67
2024/04/11 08:04:37;;;;;;;;;;;25.80;36.80;;;;;;5442316;26;19928;-63
2024/04/11 08:07:04;;;;;;;;;;;25.80;36.80;;;;;;5434495;26;19940;-63
2024/04/11 08:09:44;;;;;;;;;;;25.90;36.80;;;;;;5429464;26;19929;-63
2024/04/11 08:12:14;;;;;;;;;;;25.90;36.70;;;;;;5429803;26;21836;-65
2024/04/11 08:14:41;;;;;;;;;;;25.90;36.40;;;;;;5439083;26;20350;-65
2024/04/11 08:17:13;;;;;;;;;;;25.90;36.70;;;;;;5435416;26;19997;-65
2024/04/11 08:19:42;;;;;;;;;;;25.90;36.70;;;;;;5429120;26;19929;-64
2024/04/11 08:22:24;;;;;;;;;;;25.80;36.90;;;;;;5434479;26;20041;-69
2024/04/11 08:24:51;;;;;;;;;;;25.80;37.00;;;;;;5433826;26;19933;-62
2024/04/11 08:27:18;;;;;;;;;;;25.80;37.30;;;;;;5436775;26;20018;-62
2024/04/11 08:29:47;;;;;;;;;;;25.90;37.00;;;;;;5432617;26;19997;-60
2024/04/11 08:32:15;;;;;;;;;;;26.00;37.00;;;;;;5431063;26;19937;-60
2024/04/11 08:34:42;;;;;;;;;;;26.00;36.90;;;;;;5431733;26;19935;-59
2024/04/11 08:37:11;;;;;;;;;;;26.00;37.00;;;;;;5434940;26;20362;-61
2024/04/11 08:39:38;;;;;;;;;;;25.90;36.80;;;;;;5434808;26;19997;-59
2024/04/11 08:42:08;;;;;;;;;;;25.90;36.90;;;;;;5436993;26;20006;-59
2024/04/11 08:44:36;;;;;;;;;;;25.90;36.90;;;;;;5438691;26;20365;-59
2024/04/11 08:47:03;;;;;;;;;;;25.90;36.80;;;;;;5437847;26;20023;-59
2024/04/11 08:49:33;;;;;;;;;;;25.90;37.00;;;;;;5428708;26;20382;-59
2024/04/11 08:52:01;;;;;;;;;;;25.90;37.30;;;;;;5441751;26;19936;-59
2024/04/11 08:54:28;;;;;;;;;;;25.90;37.10;;;;;;5433269;26;19929;-59
2024/04/11 08:56:56;;;;;;;;;;;25.90;37.20;;;;;;5439470;26;19993;-59
2024/04/11 08:59:25;;;;;;;;;;;25.90;37.30;;;;;;5443370;26;19940;-58
2024/04/11 09:01:53;;;;;;;;;;;25.90;37.20;;;;;;5438335;26;19946;-58
2024/04/11 09:04:20;;;;;;;;;;;26.00;37.30;;;;;;5407643;26;19936;-60
2024/04/11 09:06:48;;;;;;;;;;;26.00;36.20;;;;;;5441435;26;19954;-58
2024/04/11 09:09:18;;;;;;;;;;;25.90;36.60;;;;;;5438681;26;19944;-59
2024/04/11 09:11:46;;;;;;;;;;;25.90;36.40;;;;;;5436990;26;19937;-61
2024/04/11 09:14:16;;;;;;;;;;;25.80;36.50;;;;;;5439701;26;19960;-59
2024/04/11 09:16:43;;;;;;;;;;;25.80;36.50;;;;;;5445982;26;22014;-60
2024/04/11 09:19:11;;;;;;;;;;;25.80;36.70;;;;;;5438305;26;19935;-63
2024/04/11 09:21:44;;;;;;;;;;;25.70;36.80;;;;;;5432620;26;19940;-65
2024/04/11 09:24:18;;;;;;;;;;;25.70;36.80;;;;;;5437961;26;20313;-60
2024/04/11 09:26:49;;;;;;;;;;;25.80;37.00;;;;;;5435630;26;19943;-59
2024/04/11 09:29:20;;;;;;;;;;;25.80;36.80;;;;;;5436310;26;19928;-59
2024/04/11 09:31:56;;;;;;;;;;;25.80;36.50;;;;;;5437442;26;20379;-59
2024/04/11 09:34:26;;;;;;;;;;;25.90;36.40;;;;;;5444264;26;19960;-58
2024/04/11 09:36:58;;;;;;;;;;;25.80;36.10;;;;;;5436276;26;19937;-58
2024/04/11 09:39:49;;;;;;;;;;;25.80;36.50;;;;;;5442188;26;20006;-59
2024/04/11 09:42:18;;;;;;;;;;;25.70;36.30;;;;;;5441059;26;19940;-60
2024/04/11 09:44:47;;;;;;;;;;;25.70;36.50;;;;;;5432348;26;19936;-58
2024/04/11 09:47:18;;;;;;;;;;;25.70;36.70;;;;;;5427861;26;21478;-59
2024/04/11 09:49:59;;;;;;;;;;;25.70;36.80;;;;;;5431908;26;19944;-59
2024/04/11 09:52:30;;;;;;;;;;;25.70;36.50;;;;;;5433078;26;20793;-61
2024/04/11 09:55:03;;;;;;;;;;;25.80;36.40;;;;;;5438720;26;19935;-59
2024/04/11 09:57:34;;;;;;;;;;;25.80;36.30;;;;;;5442483;26;19928;-60
2024/04/11 10:00:08;;;;;;;;;;;25.80;36.30;;;;;;5443169;26;20005;-62
2024/04/11 10:02:38;;;;;;;;;;;25.80;36.20;;;;;;5437368;26;20006;-61
2024/04/11 10:05:08;;;;;;;;;;;25.80;36.00;;;;;;5438856;26;19928;-59
2024/04/11 10:07:41;;;;;;;;;;;25.90;36.10;;;;;;5448677;26;20002;-60
2024/04/11 10:10:19;;;;;;;;;;;25.80;36.40;;;;;;5440202;26;20071;-60
2024/04/11 10:12:48;;;;;;;;;;;25.70;36.50;;;;;;5444054;26;19928;-60
2024/04/11 10:15:18;;;;;;;;;;;25.60;36.40;;;;;;5440685;26;19936;-60
2024/04/11 10:17:48;;;;;;;;;;;25.50;36.40;;;;;;5442212;26;19936;-61
2024/04/11 10:20:20;;;;;;;;;;;25.40;36.40;;;;;;5435458;26;20009;-62
2024/04/11 10:22:47;;;;;;;;;;;25.40;36.50;;;;;;5439053;26;19939;-61
2024/04/11 10:25:21;;;;;;;;;;;25.20;36.60;;;;;;5438478;26;19974;-61
2024/04/11 10:27:51;;;;;;;;;;;25.20;36.70;;;;;;5434257;26;19937;-61
2024/04/11 10:30:18;;;;;;;;;;;25.10;36.80;;;;;;5439957;26;19941;-61
2024/04/11 10:32:51;;;;;;;;;;;25.10;36.90;;;;;;5439074;26;19929;-61
2024/04/11 10:35:27;;;;;;;;;;;25.10;36.90;;;;;;5429567;26;20031;-60
2024/04/11 10:37:55;;;;;;;;;;;25.10;36.80;;;;;;5432259;26;20030;-60
2024/04/11 10:40:24;;;;;;;;;;;25.10;37.10;;;;;;5432337;26;19936;-60
2024/04/11 10:45:39;;;;;;;;;;;25.10;37.30;;;;;;5439957;26;20279;-61
2024/04/11 10:48:09;;;;;;;;;;;25.10;37.40;;;;;;5438805;26;19935;-64
2024/04/11 10:50:36;;;;;;;;;;;25.10;37.40;;;;;;5443229;26;20309;-59
2024/04/11 10:53:04;;;;;;;;;;;25.10;37.50;;;;;;5441425;26;19944;-59
2024/04/11 10:55:35;;;;;;;;;;;25.10;37.80;;;;;;5432772;26;19928;-58
2024/04/11 10:58:13;;;;;;;;;;;25.10;37.60;;;;;;5436867;26;19929;-60
2024/04/11 11:03:46;;;;;;;;;;;25.00;37.90;;;;;;5437685;26;19929;-63
2024/04/11 11:06:30;;;;;;;;;;;25.00;38.00;;;;;;5435376;26;20404;-62
2024/04/11 11:09:10;;;;;;;;;;;25.00;38.30;;;;;;5432871;26;20398;-62
2024/04/11 11:11:41;;;;;;;;;;;25.00;38.40;;;;;;5434757;26;19952;-63
2024/04/11 11:14:08;;;;;;;;;;;25.10;38.60;;;;;;5441318;26;20357;-62
2024/04/11 11:16:37;;;;;;;;;;;25.20;38.60;;;;;;5433405;26;19928;-60
2024/04/11 11:19:05;;;;;;;;;;;25.30;38.60;;;;;;5433934;26;19929;-60
2024/04/11 11:21:40;;;;;;;;;;;25.40;38.60;;;;;;5437640;26;19929;-60
2024/04/11 11:24:07;;;;;;;;;;;25.50;38.50;;;;;;5438461;26;19935;-61
2024/04/11 11:26:35;;;;;;;;;;;25.60;38.40;;;;;;5437526;26;19936;-64
2024/04/11 11:29:05;;;;;;;;;;;25.70;38.40;;;;;;5439344;26;20254;-61
2024/04/11 11:31:36;;;;;;;;;;;25.80;38.40;;;;;;5434325;26;20427;-63
2024/04/11 11:34:11;;;;;;;;;;;25.90;38.40;;;;;;5436368;26;20508;-61
2024/04/11 11:36:40;;;;;;;;;;;25.90;38.30;;;;;;5440242;26;19927;-62
2024/04/11 11:39:17;;;;;;;;;;;26.00;38.30;;;;;;5434485;26;19936;-62
2024/04/11 11:41:47;;;;;;;;;;;26.10;38.10;;;;;;5437126;26;20628;-62
2024/04/11 11:44:18;;;;;;;;;;;26.20;38.00;;;;;;5457092;26;19944;-63
2024/04/11 11:46:49;;;;;;;;;;;26.30;38.00;;;;;;5446355;26;19970;-62
2024/04/11 11:49:23;;;;;;;;;;;26.30;37.80;;;;;;5431373;26;19936;-61
2024/04/11 11:51:54;;;;;;;;;;;26.40;37.70;;;;;;5431493;26;19945;-60
2024/04/11 11:54:24;;;;;;;;;;;26.40;37.50;;;;;;5432891;26;19940;-61
2024/04/11 11:57:09;;;;;;;;;;;26.50;37.50;;;;;;5434993;26;19928;-62
2024/04/11 11:59:38;;;;;;;;;;;26.50;37.40;;;;;;5440601;26;20241;-61
2024/04/11 12:02:05;;;;;;;;;;;26.60;37.40;;;;;;5434661;26;20554;-61
2024/04/11 12:04:33;;;;;;;;;;;26.60;37.30;;;;;;5429090;26;19933;-60
2024/04/11 12:07:00;;;;;;;;;;;26.60;37.30;;;;;;5431415;26;19933;-60
2024/04/11 12:09:43;;;;;;;;;;;26.70;37.30;;;;;;5436370;26;19936;-60
2024/04/11 12:12:30;;;;;;;;;;;26.70;37.30;;;;;;5437834;26;19932;-60
2024/04/11 12:15:07;;;;;;;;;;;26.70;37.10;;;;;;5443141;26;19975;-60
2024/04/11 12:17:35;;;;;;;;;;;26.80;37.20;;;;;;5436966;26;19997;-61
2024/04/11 12:20:05;;;;;;;;;;;26.80;37.10;;;;;;5416522;26;19935;-62
2024/04/11 12:22:35;;;;;;;;;;;26.80;37.10;;;;;;5440959;26;20258;-62
2024/04/11 12:25:02;;;;;;;;;;;26.90;37.00;;;;;;5431918;26;19933;-61
2024/04/11 12:27:30;;;;;;;;;;;27.00;37.00;;;;;;5440496;26;19935;-63
2024/04/11 12:29:58;;;;;;;;;;;26.90;37.00;;;;;;5444848;26;19964;-60
2024/04/11 12:32:26;;;;;;;;;;;27.00;37.10;;;;;;5440787;26;19930;-59
2024/04/11 12:34:55;;;;;;;;;;;27.10;37.10;;;;;;5434897;26;20385;-60
2024/04/11 12:37:26;;;;;;;;;;;27.10;37.20;;;;;;5434650;26;19936;-59
2024/04/11 12:39:56;;;;;;;;;;;27.10;37.00;;;;;;5425837;26;19997;-59
2024/04/11 12:42:24;;;;;;;;;;;27.10;36.40;;;;;;5423124;26;19939;-59
2024/04/11 12:44:55;;;;;;;;;;;27.00;36.30;;;;;;5432433;26;19941;-60
2024/04/11 12:47:38;;;;;;;;;;;26.90;36.30;;;;;;5441791;26;19928;-59
2024/04/11 12:50:14;;;;;;;;;;;26.90;36.40;;;;;;5441854;26;20394;-60
2024/04/11 12:52:44;;;;;;;;;;;26.80;36.30;;;;;;5431054;26;19928;-60
2024/04/11 12:55:12;;;;;;;;;;;26.70;36.20;;;;;;5428378;26;19998;-60
2024/04/11 12:57:39;;;;;;;;;;;26.70;36.40;;;;;;5439784;26;19936;-60
2024/04/11 13:00:34;;;;;;;;;;;26.60;36.20;;;;;;5424488;26;21049;-61
2024/04/11 13:03:06;;;;;;;;;;;26.60;36.40;;;;;;5434110;26;19929;-63
2024/04/11 13:05:44;;;;;;;;;;;26.50;36.50;;;;;;5430591;26;19936;-60
2024/04/11 13:08:14;;;;;;;;;;;26.50;36.40;;;;;;5428264;26;19937;-64
2024/04/11 13:11:06;;;;;;;;;;;26.40;36.70;;;;;;5427525;26;21163;-61
2024/04/11 13:13:39;;;;;;;;;;;26.30;37.10;;;;;;5433555;26;19937;-59
2024/04/11 13:16:11;;;;;;;;;;;26.30;37.00;;;;;;5424522;26;19935;-59
2024/04/11 13:18:38;;;;;;;;;;;26.30;36.90;;;;;;5426001;26;20417;-60
2024/04/11 13:21:13;;;;;;;;;;;26.20;36.90;;;;;;5425898;26;19935;-59
2024/04/11 13:23:42;;;;;;;;;;;26.10;37.20;;;;;;5430675;26;19936;-60
2024/04/11 13:26:10;;;;;;;;;;;26.10;37.30;;;;;;5427537;26;19997;-60
2024/04/11 13:28:47;;;;;;;;;;;26.10;37.20;;;;;;5427105;26;19948;-59
2024/04/11 13:31:19;;;;;;;;;;;26.10;37.30;;;;;;5428551;26;19949;-59
2024/04/11 13:33:52;;;;;;;;;;;26.10;37.50;;;;;;5430741;26;19929;-59
2024/04/11 13:36:23;;;;;;;;;;;26.00;37.50;;;;;;5442630;26;19936;-59
2024/04/11 13:38:52;;;;;;;;;;;26.00;37.50;;;;;;5440599;26;19945;-61
2024/04/11 13:44:06;;;;;;;;;;;26.10;37.50;;;;;;5442652;26;19961;-61
2024/04/11 13:46:36;;;;;;;;;;;26.00;37.40;;;;;;5446374;26;19935;-60
2024/04/11 13:49:57;;;;;;;;;;;26.00;37.50;;;;;;5441690;26;19957;-60
2024/04/11 13:51:52;;;;;;;;;;;26.00;37.60;;;;;;5440322;26;20374;-60
2024/04/11 13:54:21;;;;;;;;;;;26.00;37.60;;;;;;5446362;26;20353;-60
2024/04/11 13:56:59;;;;;;;;;;;26.00;37.60;;;;;;5441393;26;19929;-60
2024/04/11 13:59:28;;;;;;;;;;;26.00;37.80;;;;;;5442816;26;20362;-60
2024/04/11 14:01:59;;;;;;;;;;;25.90;37.70;;;;;;5444798;26;19928;-61
2024/04/11 14:07:17;;;;;;;;;;;25.90;37.80;;;;;;5442210;26;20368;-59
2024/04/11 14:09:45;;;;;;;;;;;25.80;37.70;;;;;;5439379;26;19935;-60
2024/04/11 14:12:14;;;;;;;;;;;25.80;37.70;;;;;;5438214;26;19975;-60
2024/04/11 14:14:41;;;;;;;;;;;25.80;37.70;;;;;;5432994;26;19929;-63
2024/04/11 14:17:08;;;;;;;;;;;25.80;37.80;;;;;;5440236;26;20377;-63
2024/04/11 14:19:52;;;;;;;;;;;25.80;38.00;;;;;;5442713;26;19936;-62
2024/04/11 14:25:39;;;;;;;;;;;25.90;38.20;;;;;;5437235;26;19929;-63
2024/04/11 14:27:38;;;;;;;;;;;26.00;38.20;;;;;;5430166;26;19928;-63
2024/04/11 14:30:06;;;;;;;;;;;26.10;38.20;;;;;;5446758;26;19937;-63
2024/04/11 14:38:08;;;;;;;;;;;26.30;38.20;;;;;;5451423;26;19935;-62
2024/04/11 14:40:36;;;;;;;;;;;26.40;38.10;;;;;;5453028;26;19997;-59
2024/04/11 14:43:20;;;;;;;;;;;26.40;37.90;;;;;;5452970;26;19935;-60
2024/04/11 14:45:48;;;;;;;;;;;26.50;37.80;;;;;;5453046;26;19935;-61
2024/04/11 14:48:21;;;;;;;;;;;26.50;37.70;;;;;;5452618;26;19928;-62
2024/04/11 14:50:55;;;;;;;;;;;26.60;37.70;;;;;;5452452;26;20262;-61
2024/04/11 14:53:24;;;;;;;;;;;26.60;37.70;;;;;;5453045;26;19935;-62